createdAt,value
2023-03-06T00:02:19.773Z,13.77
2023-03-06T00:04:47.101Z,13.90
2023-03-06T00:07:13.928Z,15.07
2023-03-06T00:09:40.704Z,13.88
2023-03-06T00:12:08.004Z,14.30
2023-03-06T00:14:34.770Z,15.27
2023-03-06T00:17:01.560Z,13.52
2023-03-06T00:19:28.342Z,15.00
2023-03-06T00:21:55.178Z,14.35
2023-03-06T00:24:22.040Z,14.30
2023-03-06T00:26:48.779Z,15.25
2023-03-06T00:29:15.521Z,15.13
2023-03-06T00:31:46.320Z,15.15
2023-03-06T00:34:13.351Z,15.02
2023-03-06T00:36:40.386Z,14.90
2023-03-06T00:39:07.297Z,14.63
2023-03-06T00:41:34.094Z,14.82
2023-03-06T00:44:00.846Z,14.40
2023-03-06T00:46:27.652Z,15.02
2023-03-06T00:48:54.435Z,17.65
2023-03-06T00:51:21.755Z,15.15
2023-03-06T00:53:48.617Z,18.17
2023-03-06T00:56:15.377Z,15.13
2023-03-06T00:58:42.305Z,14.70
2023-03-06T01:01:09.098Z,14.40
2023-03-06T01:03:35.900Z,16.85
2023-03-06T01:06:02.707Z,16.20
2023-03-06T01:08:29.558Z,16.10
2023-03-06T01:10:56.468Z,15.73
2023-03-06T01:13:23.219Z,14.10
2023-03-06T01:15:50.001Z,15.13
2023-03-06T01:18:16.793Z,15.32
2023-03-06T01:20:43.601Z,16.00
2023-03-06T01:23:10.354Z,15.57
2023-03-06T01:25:37.135Z,15.73
2023-03-06T01:28:04.133Z,15.05
2023-03-06T01:30:30.890Z,17.52
2023-03-06T01:32:57.667Z,16.20
2023-03-06T01:35:24.480Z,15.63
2023-03-06T01:37:51.257Z,16.70
2023-03-06T01:40:18.026Z,16.30
2023-03-06T01:42:46.736Z,16.60
2023-03-06T01:45:13.536Z,16.23
2023-03-06T01:47:40.361Z,15.02
2023-03-06T01:50:10.213Z,15.70
2023-03-06T01:52:41.664Z,15.40
2023-03-06T01:55:16.112Z,14.82
2023-03-06T01:57:52.905Z,15.93
2023-03-06T02:00:27.480Z,16.08
2023-03-06T02:02:57.608Z,16.27
2023-03-06T02:05:25.037Z,15.45
2023-03-06T02:07:52.296Z,13.50
2023-03-06T02:10:20.830Z,14.75
2023-03-06T02:12:49.426Z,16.85
2023-03-06T02:15:19.470Z,16.77
2023-03-06T02:17:48.328Z,15.95
2023-03-06T02:20:31.277Z,15.75
2023-03-06T02:23:14.642Z,15.05
2023-03-06T02:25:42.592Z,14.45
2023-03-06T02:28:13.588Z,14.98
2023-03-06T02:30:42.070Z,15.75
2023-03-06T02:33:13.400Z,14.73
2023-03-06T02:35:43.821Z,14.73
2023-03-06T02:38:13.953Z,15.27
2023-03-06T02:40:43.530Z,14.35
2023-03-06T02:43:12.484Z,15.57
2023-03-06T02:45:45.262Z,15.73
2023-03-06T02:48:13.491Z,17.02
2023-03-06T02:50:41.531Z,15.50
2023-03-06T02:53:09.899Z,15.18
2023-03-06T02:55:36.820Z,16.02
2023-03-06T02:58:04.929Z,14.07
2023-03-06T03:00:32.880Z,14.88
2023-03-06T03:03:00.174Z,14.43
2023-03-06T03:05:26.939Z,13.57
2023-03-06T03:07:53.763Z,15.85
2023-03-06T03:10:20.895Z,16.92
2023-03-06T03:12:47.716Z,15.00
2023-03-06T03:15:14.760Z,14.40
2023-03-06T03:17:41.730Z,14.52
2023-03-06T03:20:12.294Z,14.63
2023-03-06T03:22:39.640Z,15.10
2023-03-06T03:25:06.792Z,15.20
2023-03-06T03:27:33.826Z,15.82
2023-03-06T03:30:00.931Z,14.95
2023-03-06T03:32:28.035Z,15.73
2023-03-06T03:34:55.806Z,16.05
2023-03-06T03:37:22.761Z,15.23
2023-03-06T03:39:49.499Z,13.98
2023-03-06T03:42:16.281Z,13.50
2023-03-06T03:44:43.044Z,15.68
2023-03-06T03:47:09.872Z,15.38
2023-03-06T03:49:36.576Z,16.35
2023-03-06T03:52:03.452Z,15.10
2023-03-06T03:54:30.246Z,14.43
2023-03-06T03:56:57.100Z,14.10
2023-03-06T03:59:23.804Z,14.13
2023-03-06T04:01:50.826Z,13.50
2023-03-06T04:04:17.740Z,14.75
2023-03-06T04:06:44.577Z,15.80
2023-03-06T04:09:11.307Z,14.38
2023-03-06T04:11:38.672Z,14.23
2023-03-06T04:14:05.531Z,13.75
2023-03-06T04:16:32.271Z,14.10
2023-03-06T04:18:59.076Z,13.75
2023-03-06T04:21:25.885Z,14.30
2023-03-06T04:23:52.610Z,15.68
2023-03-06T04:26:19.335Z,14.05
2023-03-06T04:28:46.134Z,14.55
2023-03-06T04:31:13.484Z,15.23
2023-03-06T04:33:40.326Z,13.73
2023-03-06T04:36:07.316Z,13.82
2023-03-06T04:38:34.073Z,14.80
2023-03-06T04:41:00.803Z,15.60
2023-03-06T04:43:27.702Z,14.20
2023-03-06T04:45:54.486Z,14.82
2023-03-06T04:48:21.286Z,15.68
2023-03-06T04:50:48.051Z,16.25
2023-03-06T04:53:19.613Z,14.57
2023-03-06T04:55:46.549Z,15.02
2023-03-06T04:58:14.301Z,14.32
2023-03-06T05:00:41.206Z,15.93
2023-03-06T05:03:09.121Z,14.73
2023-03-06T05:05:35.872Z,16.60
2023-03-06T05:08:02.634Z,16.50
2023-03-06T05:10:29.423Z,15.23
2023-03-06T05:12:56.139Z,16.13
2023-03-06T05:15:23.206Z,14.82
2023-03-06T05:17:50.076Z,16.45
2023-03-06T05:20:18.127Z,16.52
2023-03-06T05:22:44.961Z,15.85
2023-03-06T05:25:11.827Z,15.00
2023-03-06T05:27:38.917Z,16.13
2023-03-06T05:30:06.786Z,14.70
2023-03-06T05:32:35.591Z,17.60
2023-03-06T05:35:03.353Z,16.38
2023-03-06T05:37:30.230Z,16.70
2023-03-06T05:39:57.206Z,16.58
2023-03-06T05:42:24.089Z,16.67
2023-03-06T05:44:50.948Z,15.25
2023-03-06T05:47:17.730Z,16.83
2023-03-06T05:49:47.061Z,16.20
2023-03-06T05:52:13.968Z,18.83
2023-03-06T05:54:40.702Z,16.88
2023-03-06T05:57:07.568Z,17.58
2023-03-06T05:59:34.372Z,15.85
2023-03-06T06:02:01.463Z,17.92
2023-03-06T06:04:28.392Z,18.30
2023-03-06T06:06:59.962Z,18.42
2023-03-06T06:09:27.394Z,17.35
2023-03-06T06:11:56.068Z,18.40
2023-03-06T06:14:22.835Z,17.33
2023-03-06T06:16:50.077Z,17.85
2023-03-06T06:19:20.512Z,17.63
2023-03-06T06:21:49.510Z,17.63
2023-03-06T06:24:18.541Z,18.70
2023-03-06T06:26:45.927Z,16.38
2023-03-06T06:29:13.480Z,16.70
2023-03-06T06:31:41.206Z,17.67
2023-03-06T06:34:09.870Z,17.02
2023-03-06T06:36:36.895Z,16.92
2023-03-06T06:39:03.940Z,17.45
2023-03-06T06:41:52.914Z,16.45
2023-03-06T06:44:19.502Z,18.60
2023-03-06T06:47:21.417Z,17.27
2023-03-06T06:49:34.348Z,16.65
2023-03-06T06:52:01.326Z,18.10
2023-03-06T06:54:28.334Z,16.08
2023-03-06T06:56:55.112Z,16.33
2023-03-06T06:59:23.773Z,17.23
2023-03-06T07:01:51.947Z,16.25
2023-03-06T07:04:19.523Z,15.70
2023-03-06T07:06:46.381Z,16.98
2023-03-06T07:09:13.451Z,16.30
2023-03-06T07:11:40.809Z,14.35
2023-03-06T07:14:07.831Z,14.98
2023-03-06T07:16:35.007Z,16.02
2023-03-06T07:19:02.066Z,16.15
2023-03-06T07:21:28.800Z,15.75
2023-03-06T07:23:57.467Z,16.65
2023-03-06T07:26:28.389Z,16.80
2023-03-06T07:28:55.483Z,17.25
2023-03-06T07:31:24.655Z,16.50
2023-03-06T07:33:52.748Z,15.15
2023-03-06T07:36:20.431Z,14.90
2023-03-06T07:38:47.268Z,15.60
2023-03-06T07:41:16.423Z,16.48
2023-03-06T07:43:44.703Z,15.75
2023-03-06T07:46:12.903Z,14.35
2023-03-06T07:48:40.150Z,16.05
2023-03-06T07:51:13.204Z,16.85
2023-03-06T07:53:40.165Z,15.07
2023-03-06T07:56:09.099Z,15.40
2023-03-06T07:58:37.787Z,17.30
2023-03-06T08:01:06.596Z,15.38
2023-03-06T08:03:33.657Z,15.20
2023-03-06T08:06:17.154Z,14.85
2023-03-06T08:08:46.004Z,14.55
2023-03-06T08:11:14.386Z,15.27
2023-03-06T08:13:41.258Z,15.38
2023-03-06T08:16:08.566Z,16.08
2023-03-06T08:18:36.211Z,15.20
2023-03-06T08:21:03.053Z,14.00
2023-03-06T08:23:30.062Z,15.55
2023-03-06T08:25:58.866Z,15.23
2023-03-06T08:28:25.875Z,15.50
2023-03-06T08:30:52.722Z,15.57
2023-03-06T08:33:19.473Z,16.52
2023-03-06T08:35:47.272Z,16.88
2023-03-06T08:38:14.171Z,15.77
2023-03-06T08:40:40.969Z,15.85
2023-03-06T08:43:14.006Z,17.25
2023-03-06T08:45:41.036Z,16.23
2023-03-06T08:48:07.995Z,15.80
2023-03-06T08:50:34.879Z,17.48
2023-03-06T08:53:01.997Z,16.75
2023-03-06T08:55:28.703Z,14.82
2023-03-06T08:57:55.571Z,16.70
2023-03-06T09:00:22.580Z,16.40
2023-03-06T09:02:49.410Z,15.40
2023-03-06T09:05:16.188Z,16.25
2023-03-06T09:07:43.000Z,15.23
2023-03-06T09:10:14.998Z,14.02
2023-03-06T09:12:50.541Z,15.65
2023-03-06T09:15:20.671Z,14.82
2023-03-06T09:17:47.891Z,15.48
2023-03-06T09:20:15.223Z,15.90
2023-03-06T09:22:42.542Z,15.02
2023-03-06T09:25:13.190Z,15.48
2023-03-06T09:27:40.770Z,16.05
2023-03-06T09:30:09.074Z,14.85
2023-03-06T09:32:35.879Z,15.90
2023-03-06T09:35:02.689Z,14.48
2023-03-06T09:37:29.460Z,13.40
2023-03-06T09:39:57.769Z,15.52
2023-03-06T09:42:25.025Z,13.52
2023-03-06T09:44:55.307Z,15.13
2023-03-06T09:47:49.511Z,14.82
2023-03-06T09:50:48.646Z,13.93
2023-03-06T09:53:27.282Z,13.45
2023-03-06T09:56:16.076Z,13.23
2023-03-06T09:58:49.723Z,14.88
2023-03-06T10:01:23.111Z,13.93
2023-03-06T10:03:56.095Z,12.32
2023-03-06T10:06:48.325Z,11.27
2023-03-06T10:09:35.328Z,13.85
2023-03-06T10:12:10.526Z,13.50
2023-03-06T10:14:49.080Z,13.75
2023-03-06T10:17:26.163Z,13.68
2023-03-06T10:19:53.141Z,12.02
2023-03-06T10:22:25.863Z,12.52
2023-03-06T10:25:24.254Z,11.80
2023-03-06T10:28:08.825Z,10.57
2023-03-06T10:30:46.999Z,9.52
2023-03-06T10:33:41.970Z,11.82
2023-03-06T10:36:15.681Z,11.98
2023-03-06T10:38:44.252Z,10.00
2023-03-06T10:41:10.948Z,12.10
2023-03-06T10:43:43.457Z,10.18
2023-03-06T10:46:13.115Z,11.60
2023-03-06T10:48:42.589Z,9.68
2023-03-06T10:51:21.646Z,10.70
2023-03-06T10:53:53.453Z,11.55
2023-03-06T10:56:37.581Z,13.23
2023-03-06T10:59:08.763Z,12.05
2023-03-06T11:01:35.669Z,11.02
2023-03-06T11:04:29.865Z,11.63
2023-03-06T11:07:19.409Z,11.63
2023-03-06T11:10:19.066Z,12.75
2023-03-06T11:13:03.018Z,10.75
2023-03-06T11:15:36.067Z,11.95
2023-03-06T11:18:24.202Z,11.73
2023-03-06T11:20:54.282Z,11.02
2023-03-06T11:23:44.682Z,10.77
2023-03-06T11:26:25.921Z,9.25
2023-03-06T11:29:17.259Z,11.63
2023-03-06T11:32:05.245Z,12.38
2023-03-06T11:34:53.334Z,11.25
2023-03-06T11:37:31.837Z,10.88
2023-03-06T11:40:12.935Z,12.25
2023-03-06T11:42:45.968Z,11.90
2023-03-06T11:45:31.945Z,10.55
2023-03-06T11:48:24.582Z,11.60
2023-03-06T11:50:53.870Z,11.07
2023-03-06T11:53:26.361Z,11.27
2023-03-06T11:55:53.034Z,11.00
2023-03-06T11:58:25.683Z,11.18
2023-03-06T12:01:05.046Z,10.93
2023-03-06T12:03:50.294Z,10.35
2023-03-06T12:06:49.760Z,10.63
2023-03-06T12:09:32.845Z,11.18
2023-03-06T12:12:20.872Z,10.77
2023-03-06T12:15:13.392Z,10.77
2023-03-06T12:21:07.171Z,9.25
2023-03-06T12:23:33.882Z,9.25
2023-03-06T12:26:18.933Z,9.35
2023-03-06T12:29:23.184Z,10.25
2023-03-06T12:32:10.134Z,10.43
2023-03-06T12:34:55.238Z,9.15
2023-03-06T12:37:26.468Z,9.50
2023-03-06T12:40:23.427Z,9.43
2023-03-06T12:43:03.952Z,9.88
2023-03-06T12:45:35.093Z,8.05
2023-03-06T12:48:02.141Z,9.13
2023-03-06T12:50:36.950Z,9.00
2023-03-06T12:53:07.198Z,9.07
2023-03-06T12:55:46.476Z,8.77
2023-03-06T12:58:28.718Z,9.10
2023-03-06T13:01:09.551Z,9.32
2023-03-06T13:03:59.583Z,9.52
2023-03-06T13:06:39.221Z,8.60
2023-03-06T13:09:40.039Z,8.50
2023-03-06T13:12:27.729Z,9.13
2023-03-06T13:15:03.333Z,9.63
2023-03-06T13:17:36.212Z,8.88
2023-03-06T13:20:35.938Z,9.13
2023-03-06T13:23:30.740Z,9.32
2023-03-06T13:26:21.625Z,7.88
2023-03-06T13:28:51.085Z,7.75
2023-03-06T13:31:27.677Z,8.57
2023-03-06T13:33:57.366Z,7.53
2023-03-06T13:36:29.575Z,9.18
2023-03-06T13:39:05.336Z,8.35
2023-03-06T13:41:32.013Z,8.48
2023-03-06T13:44:01.505Z,7.32
2023-03-06T13:46:39.304Z,7.30
2023-03-06T13:49:19.404Z,8.05
2023-03-06T13:51:54.265Z,8.02
2023-03-06T13:54:39.521Z,8.55
2023-03-06T13:57:11.908Z,7.43
2023-03-06T14:00:11.344Z,7.78
2023-03-06T14:03:11.880Z,7.45
2023-03-06T14:05:50.061Z,7.13
2023-03-06T14:08:27.566Z,7.47
2023-03-06T14:11:17.135Z,7.43
2023-03-06T14:13:49.763Z,7.90
2023-03-06T14:16:24.961Z,7.72
2023-03-06T14:18:54.226Z,7.70
2023-03-06T14:21:51.507Z,8.55
2023-03-06T14:24:20.797Z,6.93
2023-03-06T14:26:50.659Z,7.63
2023-03-06T14:29:22.817Z,7.78
2023-03-06T14:34:23.843Z,7.55
2023-03-06T14:36:52.457Z,6.93
2023-03-06T14:39:36.170Z,7.90
2023-03-06T14:42:19.120Z,7.50
2023-03-06T14:44:47.256Z,6.57
2023-03-06T14:47:25.989Z,7.75
2023-03-06T14:50:18.477Z,8.20
2023-03-06T14:55:17.835Z,7.22
2023-03-06T14:57:45.214Z,7.40
2023-03-06T15:00:21.855Z,7.57
2023-03-06T15:02:50.888Z,6.68
2023-03-06T15:05:29.402Z,6.18
2023-03-06T15:08:01.322Z,7.85
2023-03-06T15:10:33.954Z,6.13
2023-03-06T15:13:22.564Z,8.55
2023-03-06T15:16:15.369Z,6.95
2023-03-06T15:18:56.254Z,7.03
2023-03-06T15:21:24.720Z,6.13
2023-03-06T15:23:53.664Z,7.63
2023-03-06T15:26:33.944Z,7.30
2023-03-06T15:29:20.948Z,7.82
2023-03-06T15:31:47.798Z,7.97
2023-03-06T15:34:18.314Z,8.57
2023-03-06T15:36:51.465Z,9.02
2023-03-06T15:39:38.470Z,7.40
2023-03-06T15:42:19.425Z,8.82
2023-03-06T15:45:16.620Z,7.90
2023-03-06T15:47:44.843Z,7.05
2023-03-06T15:50:20.754Z,7.25
2023-03-06T15:52:50.797Z,6.85
2023-03-06T15:55:24.109Z,7.53
2023-03-06T15:58:05.248Z,6.25
2023-03-06T16:00:38.548Z,7.00
2023-03-06T16:03:08.054Z,7.05
2023-03-06T16:05:37.471Z,7.07
2023-03-06T16:08:05.256Z,6.80
2023-03-06T16:10:35.388Z,8.55
2023-03-06T16:13:06.708Z,5.93
2023-03-06T16:15:43.016Z,6.50
2023-03-06T16:18:11.654Z,6.93
2023-03-06T16:20:40.137Z,6.40
2023-03-06T16:23:12.547Z,6.97
2023-03-06T16:25:48.506Z,7.97
2023-03-06T16:28:16.690Z,7.90
2023-03-06T16:30:44.438Z,7.93
2023-03-06T16:33:12.638Z,7.88
2023-03-06T16:35:41.264Z,7.03
2023-03-06T16:38:09.815Z,6.38
2023-03-06T16:40:43.351Z,6.22
2023-03-06T16:43:10.722Z,6.95
2023-03-06T16:45:41.853Z,6.60
2023-03-06T16:48:16.027Z,6.93
2023-03-06T16:50:43.188Z,7.18
2023-03-06T16:53:10.129Z,6.80
2023-03-06T16:55:36.948Z,6.43
2023-03-06T16:58:04.139Z,8.00
2023-03-06T17:00:33.180Z,7.18
2023-03-06T17:03:01.147Z,6.28
2023-03-06T17:05:29.185Z,6.68
2023-03-06T17:07:56.444Z,6.85
2023-03-06T17:10:26.298Z,7.65
2023-03-06T17:12:54.235Z,8.05
2023-03-06T17:15:21.072Z,7.47
2023-03-06T17:17:48.598Z,7.35
2023-03-06T17:20:15.905Z,7.00
2023-03-06T17:22:42.744Z,7.28
2023-03-06T17:25:10.456Z,7.70
2023-03-06T17:27:37.885Z,8.35
2023-03-06T17:30:06.267Z,7.10
2023-03-06T17:32:33.417Z,7.70
2023-03-06T17:35:00.382Z,6.95
2023-03-06T17:37:27.215Z,7.03
2023-03-06T17:39:54.250Z,6.78
2023-03-06T17:42:21.014Z,7.63
2023-03-06T17:44:48.037Z,7.60
2023-03-06T17:47:14.800Z,9.02
2023-03-06T17:49:41.681Z,8.00
2023-03-06T17:52:08.545Z,7.65
2023-03-06T17:54:35.939Z,7.85
2023-03-06T17:57:05.286Z,8.30
2023-03-06T17:59:36.327Z,8.40
2023-03-06T18:02:03.471Z,10.30
2023-03-06T18:04:30.397Z,10.10
2023-03-06T18:06:58.308Z,9.57
2023-03-06T18:09:25.084Z,10.20
2023-03-06T18:11:51.866Z,9.50
2023-03-06T18:14:21.666Z,9.77
2023-03-06T18:16:48.484Z,9.82
2023-03-06T18:19:18.466Z,10.05
2023-03-06T18:21:47.266Z,13.68
2023-03-06T18:24:14.322Z,12.40
2023-03-06T18:26:45.839Z,14.27
2023-03-06T18:29:12.679Z,20.38
2023-03-06T18:31:41.978Z,16.23
2023-03-06T18:34:11.934Z,25.27
2023-03-06T18:36:39.588Z,18.45
2023-03-06T18:39:09.696Z,12.95
2023-03-06T18:41:37.299Z,16.90
2023-03-06T18:44:04.937Z,16.45
2023-03-06T18:46:36.942Z,18.65
2023-03-06T18:49:05.482Z,13.00
2023-03-06T18:51:32.603Z,13.70
2023-03-06T18:54:01.271Z,9.07
2023-03-06T18:56:31.226Z,9.38
2023-03-06T18:59:04.679Z,9.23
2023-03-06T19:01:31.815Z,8.45
2023-03-06T19:04:05.185Z,10.63
2023-03-06T19:06:32.049Z,10.73
2023-03-06T19:08:58.993Z,10.02
2023-03-06T19:11:27.310Z,9.32
2023-03-06T19:13:54.820Z,10.00
2023-03-06T19:16:27.200Z,9.02
2023-03-06T19:18:57.586Z,13.50
2023-03-06T19:21:26.645Z,8.98
2023-03-06T19:23:54.202Z,7.68
2023-03-06T19:26:21.099Z,6.45
2023-03-06T19:28:48.353Z,7.30
2023-03-06T19:31:21.332Z,6.70
2023-03-06T19:33:49.466Z,7.18
2023-03-06T19:36:20.241Z,5.82
2023-03-06T19:38:52.654Z,7.78
2023-03-06T19:41:19.453Z,7.43
2023-03-06T19:43:53.882Z,7.53
2023-03-06T19:46:21.735Z,8.90
2023-03-06T19:48:48.845Z,8.77
2023-03-06T19:51:15.652Z,7.68
2023-03-06T19:53:42.456Z,8.85
2023-03-06T19:56:22.183Z,6.50
2023-03-06T19:58:49.039Z,6.63
2023-03-06T20:01:18.214Z,5.88
2023-03-06T20:03:45.023Z,5.80
2023-03-06T20:06:17.476Z,6.25
2023-03-06T20:08:45.303Z,5.18
2023-03-06T20:11:20.058Z,5.45
2023-03-06T20:13:47.830Z,5.88
2023-03-06T20:16:15.552Z,6.18
2023-03-06T20:18:42.768Z,5.78
2023-03-06T20:21:09.927Z,6.00
2023-03-06T20:23:36.727Z,6.30
2023-03-06T20:26:09.733Z,5.50
2023-03-06T20:28:39.113Z,5.40
2023-03-06T20:31:17.801Z,6.18
2023-03-06T20:33:49.959Z,6.47
2023-03-06T20:36:23.301Z,6.20
2023-03-06T20:38:50.349Z,7.90
2023-03-06T20:41:23.622Z,8.93
2023-03-06T20:43:51.199Z,9.70
2023-03-06T20:46:19.517Z,8.45
2023-03-06T20:48:49.448Z,8.95
2023-03-06T20:51:23.475Z,9.77
2023-03-06T20:53:53.030Z,7.75
2023-03-06T20:56:22.086Z,8.77
2023-03-06T20:58:48.923Z,9.63
2023-03-06T21:01:23.086Z,10.02
2023-03-06T21:03:50.413Z,10.88
2023-03-06T21:06:18.136Z,12.75
2023-03-06T21:08:45.221Z,10.77
2023-03-06T21:11:12.606Z,8.57
2023-03-06T21:13:39.515Z,7.10
2023-03-06T21:16:14.810Z,8.80
2023-03-06T21:18:42.326Z,9.18
2023-03-06T21:21:14.272Z,10.35
2023-03-06T21:23:41.115Z,9.38
2023-03-06T21:26:11.360Z,8.57
2023-03-06T21:28:39.660Z,9.57
2023-03-06T21:31:11.525Z,9.75
2023-03-06T21:33:39.079Z,10.63
2023-03-06T21:36:07.064Z,10.02
2023-03-06T21:38:34.117Z,10.32
2023-03-06T21:41:32.586Z,10.13
2023-03-06T21:44:01.656Z,11.57
2023-03-06T21:46:29.192Z,11.52
2023-03-06T21:48:56.900Z,13.38
2023-03-06T21:51:25.170Z,12.32
2023-03-06T21:53:53.298Z,12.00
2023-03-06T21:56:22.275Z,13.55
2023-03-06T21:58:49.240Z,12.85
2023-03-06T22:01:19.432Z,11.48
2023-03-06T22:03:46.279Z,10.38
2023-03-06T22:06:16.346Z,10.40
2023-03-06T22:08:43.344Z,9.45
2023-03-06T22:11:16.005Z,10.18
2023-03-06T22:13:43.194Z,8.85
2023-03-06T22:16:12.306Z,8.85
2023-03-06T22:18:39.235Z,7.78
2023-03-06T22:21:11.401Z,7.97
2023-03-06T22:26:07.650Z,8.30
2023-03-06T22:28:35.179Z,8.43
2023-03-06T22:31:16.978Z,8.77
2023-03-06T22:33:44.000Z,7.68
2023-03-06T22:36:13.977Z,8.18
2023-03-06T22:38:43.036Z,8.32
2023-03-06T22:41:11.167Z,8.75
2023-03-06T22:43:38.345Z,7.85
2023-03-06T22:46:07.598Z,7.30
2023-03-06T22:48:34.457Z,8.30
2023-03-06T22:51:13.056Z,8.63
2023-03-06T22:53:40.393Z,7.90
2023-03-06T22:56:09.657Z,7.82
2023-03-06T22:58:37.448Z,9.85
2023-03-06T23:01:10.531Z,8.25
2023-03-06T23:03:38.782Z,9.75
2023-03-06T23:06:07.944Z,8.25
2023-03-06T23:08:34.802Z,8.85
2023-03-06T23:11:12.022Z,9.13
2023-03-06T23:13:39.091Z,8.15
2023-03-06T23:16:07.584Z,9.27
2023-03-06T23:18:36.214Z,7.68
2023-03-06T23:21:15.969Z,8.68
2023-03-06T23:23:44.224Z,9.00
2023-03-06T23:26:14.013Z,8.90
2023-03-06T23:28:41.491Z,8.50
2023-03-06T23:31:14.505Z,9.50
2023-03-06T23:33:41.725Z,9.20
2023-03-06T23:36:11.432Z,9.10
2023-03-06T23:38:38.855Z,9.05
2023-03-06T23:41:11.780Z,9.70
2023-03-06T23:43:39.147Z,10.88
2023-03-06T23:46:07.343Z,9.32
2023-03-06T23:48:35.767Z,9.02
2023-03-06T23:51:07.702Z,10.00
2023-03-06T23:53:35.091Z,10.90
2023-03-06T23:56:04.275Z,9.82
2023-03-06T23:58:31.149Z,9.65
